createdAt,value
2018-10-11T00:00:53.760Z,34.43
2018-10-11T00:03:23.167Z,37.33
2018-10-11T00:05:52.115Z,39.53
2018-10-11T00:08:21.084Z,40.43
2018-10-11T00:10:50.071Z,45.20
2018-10-11T00:13:19.109Z,40.23
2018-10-11T00:15:47.999Z,40.78
2018-10-11T00:18:17.000Z,39.10
2018-10-11T00:20:46.501Z,46.42
2018-10-11T00:23:15.403Z,37.58
2018-10-11T00:25:44.394Z,47.78
2018-10-11T00:28:13.290Z,31.70
2018-10-11T00:30:42.186Z,38.40
2018-10-11T00:33:11.223Z,33.40
2018-10-11T00:35:40.176Z,37.30
2018-10-11T00:38:09.136Z,35.23
2018-10-11T00:40:38.153Z,34.35
2018-10-11T00:43:07.596Z,46.45
2018-10-11T00:45:36.492Z,42.03
2018-10-11T00:48:05.992Z,40.45
2018-10-11T00:50:34.924Z,40.95
2018-10-11T00:53:03.948Z,37.03
2018-10-11T00:55:33.030Z,37.73
2018-10-11T00:58:02.055Z,34.95
2018-10-11T01:00:30.995Z,38.25
2018-10-11T01:03:00.015Z,34.78
2018-10-11T01:05:28.963Z,36.85
2018-10-11T01:07:57.911Z,42.73
2018-10-11T01:10:26.998Z,37.78
2018-10-11T01:12:56.022Z,40.10
2018-10-11T01:15:25.379Z,46.13
2018-10-11T01:17:54.457Z,44.40
2018-10-11T01:20:23.493Z,42.83
2018-10-11T01:22:52.386Z,35.90
2018-10-11T01:25:21.394Z,42.55
2018-10-11T01:27:50.444Z,42.78
2018-10-11T01:30:19.402Z,45.58
2018-10-11T01:32:48.413Z,39.27
2018-10-11T01:35:17.722Z,47.95
2018-10-11T01:37:46.688Z,39.83
2018-10-11T01:40:15.651Z,52.15
2018-10-11T01:42:44.638Z,41.20
2018-10-11T01:45:13.613Z,39.85
2018-10-11T01:47:42.625Z,43.48
2018-10-11T01:50:11.539Z,42.05
2018-10-11T01:52:40.471Z,47.48
2018-10-11T01:55:09.515Z,52.40
2018-10-11T01:57:38.433Z,39.53
2018-10-11T02:00:07.464Z,46.25
2018-10-11T02:02:37.363Z,43.30
2018-10-11T02:05:06.280Z,47.90
2018-10-11T02:07:35.193Z,38.95
2018-10-11T02:10:04.613Z,46.80
2018-10-11T02:12:33.586Z,45.20
2018-10-11T02:15:02.553Z,41.55
2018-10-11T02:17:31.722Z,44.40
2018-10-11T02:20:00.699Z,48.40
2018-10-11T02:22:29.656Z,50.38
2018-10-11T02:24:59.587Z,46.65
2018-10-11T02:27:28.549Z,45.15
2018-10-11T02:29:57.488Z,49.95
2018-10-11T02:32:27.382Z,42.98
2018-10-11T02:34:56.494Z,44.75
2018-10-11T02:37:25.506Z,47.67
2018-10-11T02:39:54.739Z,44.40
2018-10-11T02:42:23.743Z,43.48
2018-10-11T02:44:52.657Z,40.90
2018-10-11T02:47:21.782Z,44.18
2018-10-11T02:49:50.704Z,47.93
2018-10-11T02:52:19.708Z,45.98
2018-10-11T02:54:48.784Z,47.38
2018-10-11T02:57:28.815Z,44.38
2018-10-11T02:59:58.129Z,45.25
2018-10-11T03:02:27.263Z,50.45
2018-10-11T03:04:56.600Z,50.55
2018-10-11T03:07:26.993Z,47.38
2018-10-11T03:09:56.306Z,47.45
2018-10-11T03:12:25.401Z,55.17
2018-10-11T03:14:54.457Z,49.63
2018-10-11T03:17:23.487Z,52.20
2018-10-11T03:19:52.522Z,41.00
2018-10-11T03:22:21.548Z,56.45
2018-10-11T03:24:50.631Z,45.55
2018-10-11T03:27:19.672Z,47.03
2018-10-11T03:29:48.688Z,50.70
2018-10-11T03:32:17.734Z,45.95
2018-10-11T03:34:46.763Z,51.08
2018-10-11T03:37:15.971Z,49.80
2018-10-11T03:39:44.858Z,47.10
2018-10-11T03:42:13.786Z,55.17
2018-10-11T03:44:42.884Z,46.20
2018-10-11T03:47:11.894Z,48.85
2018-10-11T03:49:40.805Z,47.48
2018-10-11T03:52:09.795Z,46.10
2018-10-11T03:54:38.718Z,57.98
2018-10-11T03:57:08.022Z,49.95
2018-10-11T03:59:37.049Z,51.73
2018-10-11T04:02:05.959Z,53.23
2018-10-11T04:04:34.916Z,54.67
2018-10-11T04:07:04.060Z,57.78
2018-10-11T04:09:33.029Z,57.10
2018-10-11T04:12:02.083Z,54.23
2018-10-11T04:14:31.996Z,57.83
2018-10-11T04:17:00.920Z,47.65
2018-10-11T04:19:29.912Z,55.90
2018-10-11T04:21:58.874Z,55.90
2018-10-11T04:24:27.791Z,56.45
2018-10-11T04:26:56.754Z,58.35
2018-10-11T04:29:26.350Z,55.85
2018-10-11T04:31:55.342Z,55.30
2018-10-11T04:34:24.444Z,55.10
2018-10-11T04:36:53.474Z,61.65
2018-10-11T04:39:22.459Z,53.08
2018-10-11T04:41:51.425Z,57.25
2018-10-11T04:44:20.469Z,57.80
2018-10-11T04:46:49.459Z,58.52
2018-10-11T04:49:18.427Z,65.62
2018-10-11T04:51:47.448Z,63.05
2018-10-11T04:54:16.446Z,64.35
2018-10-11T04:56:45.411Z,63.23
2018-10-11T04:59:14.456Z,67.95
2018-10-11T05:01:43.413Z,62.70
2018-10-11T05:04:12.428Z,66.47
2018-10-11T05:06:41.401Z,52.93
2018-10-11T05:09:10.339Z,60.17
2018-10-11T05:11:40.224Z,59.93
2018-10-11T05:14:09.391Z,71.85
2018-10-11T05:16:38.419Z,82.50
2018-10-11T05:19:07.493Z,70.60
2018-10-11T05:21:36.680Z,76.92
2018-10-11T05:24:05.688Z,70.17
2018-10-11T05:26:34.597Z,65.90
2018-10-11T05:29:03.733Z,72.80
2018-10-11T05:31:32.917Z,65.67
2018-10-11T05:34:01.912Z,67.72
2018-10-11T05:36:31.521Z,70.72
2018-10-11T05:39:00.484Z,66.22
2018-10-11T05:41:29.523Z,67.42
2018-10-11T05:43:58.627Z,71.67
2018-10-11T05:46:30.355Z,72.37
2018-10-11T05:49:00.632Z,64.82
2018-10-11T05:51:30.638Z,71.53
2018-10-11T05:54:00.352Z,81.25
2018-10-11T05:56:32.829Z,64.25
2018-10-11T05:59:02.076Z,72.20
2018-10-11T06:01:31.901Z,66.22
2018-10-11T06:04:01.250Z,70.90
2018-10-11T06:06:30.261Z,70.85
2018-10-11T06:08:59.896Z,63.15
2018-10-11T06:11:29.025Z,60.20
2018-10-11T06:13:58.126Z,52.10
2018-10-11T06:16:27.088Z,54.03
2018-10-11T06:18:56.072Z,46.63
2018-10-11T06:21:25.310Z,47.17
2018-10-11T06:23:54.354Z,48.98
2018-10-11T06:26:23.374Z,42.65
2018-10-11T06:28:52.589Z,47.85
2018-10-11T06:31:21.639Z,38.90
2018-10-11T06:33:50.684Z,42.65
2018-10-11T06:36:19.794Z,46.70
2018-10-11T06:38:48.821Z,45.10
2018-10-11T06:41:17.966Z,43.15
2018-10-11T06:43:47.074Z,41.20
2018-10-11T06:46:16.120Z,44.77
2018-10-11T06:48:45.159Z,35.65
2018-10-11T06:51:14.245Z,37.63
2018-10-11T06:53:43.284Z,44.33
2018-10-11T06:56:12.212Z,41.20
2018-10-11T06:58:41.185Z,44.65
2018-10-11T07:01:10.094Z,38.80
2018-10-11T07:03:39.012Z,41.55
2018-10-11T07:06:08.043Z,43.38
2018-10-11T07:08:36.961Z,39.25
2018-10-11T07:11:05.888Z,44.48
2018-10-11T07:13:34.899Z,43.68
2018-10-11T07:16:03.818Z,40.30
2018-10-11T07:18:33.553Z,45.40
2018-10-11T07:21:02.597Z,39.92
2018-10-11T07:23:31.499Z,42.40
2018-10-11T07:26:00.640Z,42.33
2018-10-11T07:28:29.649Z,35.78
2018-10-11T07:30:58.596Z,38.63
2018-10-11T07:33:27.565Z,37.60
2018-10-11T07:35:56.565Z,40.65
2018-10-11T07:38:25.559Z,34.25
2018-10-11T07:40:54.545Z,40.38
2018-10-11T07:43:23.680Z,37.78
2018-10-11T07:45:52.679Z,37.38
2018-10-11T07:48:21.594Z,40.65
2018-10-11T07:50:50.567Z,36.70
2018-10-11T07:53:19.476Z,33.42
2018-10-11T07:55:48.448Z,32.78
2018-10-11T07:58:17.438Z,34.25
2018-10-11T08:00:46.355Z,39.13
2018-10-11T08:03:15.266Z,34.23
2018-10-11T08:05:44.223Z,32.13
2018-10-11T08:08:13.112Z,35.58
2018-10-11T08:10:42.152Z,34.63
2018-10-11T08:13:11.244Z,39.73
2018-10-11T08:15:40.246Z,36.53
2018-10-11T08:18:09.167Z,37.63
2018-10-11T08:20:38.205Z,33.23
2018-10-11T08:23:07.137Z,39.53
2018-10-11T08:25:36.244Z,37.98
2018-10-11T08:28:05.046Z,35.35
2018-10-11T08:30:33.953Z,35.95
2018-10-11T08:33:02.937Z,32.60
2018-10-11T08:35:31.979Z,37.00
2018-10-11T08:38:01.068Z,33.95
2018-10-11T08:40:29.927Z,33.78
2018-10-11T08:42:58.907Z,34.08
2018-10-11T08:45:27.833Z,32.15
2018-10-11T08:47:56.799Z,32.25
2018-10-11T08:50:25.941Z,31.77
2018-10-11T08:52:54.920Z,31.55
2018-10-11T08:55:23.981Z,31.17
2018-10-11T08:57:53.067Z,30.00
2018-10-11T09:00:22.161Z,29.07
2018-10-11T09:02:51.177Z,28.62
2018-10-11T09:05:20.328Z,30.55
2018-10-11T09:07:49.282Z,29.30
2018-10-11T09:10:18.276Z,29.45
2018-10-11T09:12:47.337Z,30.95
2018-10-11T09:15:16.360Z,29.85
2018-10-11T09:17:45.407Z,30.20
2018-10-11T09:20:14.459Z,31.42
2018-10-11T09:22:43.457Z,33.20
2018-10-11T09:25:12.529Z,33.92
2018-10-11T09:27:41.544Z,31.73
2018-10-11T09:30:10.592Z,31.68
2018-10-11T09:32:39.581Z,28.65
2018-10-11T09:35:08.898Z,29.92
2018-10-11T09:37:38.112Z,39.13
2018-10-11T09:40:07.195Z,32.45
2018-10-11T09:42:36.386Z,37.35
2018-10-11T09:45:05.559Z,35.48
2018-10-11T09:47:34.565Z,27.65
2018-10-11T09:50:03.692Z,31.85
2018-10-11T09:52:32.740Z,32.20
2018-10-11T09:55:01.728Z,30.77
2018-10-11T09:57:33.879Z,30.23
2018-10-11T10:00:04.136Z,21.35
2018-10-11T10:02:33.458Z,22.77
2018-10-11T10:05:03.620Z,25.25
2018-10-11T10:07:32.655Z,26.27
2018-10-11T10:10:01.859Z,24.25
2018-10-11T10:12:30.798Z,23.40
2018-10-11T10:14:59.815Z,20.27
2018-10-11T10:17:28.828Z,23.60
2018-10-11T10:19:57.889Z,18.62
2018-10-11T10:22:27.829Z,24.70
2018-10-11T10:24:56.877Z,25.32
2018-10-11T10:27:26.008Z,23.50
2018-10-11T10:29:55.059Z,23.20
2018-10-11T10:32:24.105Z,29.57
2018-10-11T10:34:53.135Z,24.70
2018-10-11T10:37:22.131Z,26.57
2018-10-11T10:39:51.156Z,23.20
2018-10-11T10:42:20.249Z,22.10
2018-10-11T10:44:49.234Z,20.43
2018-10-11T10:47:18.274Z,19.10
2018-10-11T10:49:47.347Z,17.00
2018-10-11T10:52:16.414Z,23.60
2018-10-11T10:54:45.410Z,17.32
2018-10-11T10:57:14.432Z,19.95
2018-10-11T10:59:43.323Z,18.62
2018-10-11T11:02:12.212Z,20.68
2018-10-11T11:04:41.188Z,19.85
2018-10-11T11:07:10.169Z,16.77
2018-10-11T11:09:39.225Z,19.40
2018-10-11T11:12:08.244Z,19.32
2018-10-11T11:14:37.160Z,17.95
2018-10-11T11:17:06.142Z,16.35
2018-10-11T11:19:35.087Z,12.60
2018-10-11T11:22:04.053Z,15.05
2018-10-11T11:27:25.826Z,14.90
2018-10-11T11:29:54.784Z,13.00
2018-10-11T11:32:23.737Z,13.55
2018-10-11T11:34:52.795Z,13.25
2018-10-11T11:37:21.740Z,13.43
2018-10-11T11:39:50.735Z,18.55
2018-10-11T11:42:19.819Z,13.80
2018-10-11T11:44:48.757Z,13.38
2018-10-11T11:47:17.718Z,19.50
2018-10-11T11:49:46.706Z,13.90
2018-10-11T11:52:15.728Z,12.30
2018-10-11T11:54:44.689Z,12.95
2018-10-11T11:57:14.119Z,17.70
2018-10-11T11:59:43.038Z,13.95
2018-10-11T12:02:12.095Z,14.40
2018-10-11T12:04:41.134Z,14.23
2018-10-11T12:07:10.088Z,13.10
2018-10-11T12:09:39.019Z,14.47
2018-10-11T12:12:08.080Z,12.03
2018-10-11T12:14:36.995Z,12.30
2018-10-11T12:17:05.966Z,11.53
2018-10-11T12:19:35.025Z,14.43
2018-10-11T12:22:04.014Z,11.65
2018-10-11T12:24:33.173Z,14.18
2018-10-11T12:27:02.304Z,10.90
2018-10-11T12:29:31.260Z,10.25
2018-10-11T12:32:00.169Z,9.05
2018-10-11T12:34:29.151Z,9.55
2018-10-11T12:36:58.104Z,8.20
2018-10-11T12:39:27.136Z,12.25
2018-10-11T12:41:56.191Z,10.03
2018-10-11T12:44:25.306Z,7.53
2018-10-11T12:46:54.337Z,10.28
2018-10-11T12:49:23.443Z,9.83
2018-10-11T12:51:52.488Z,9.70
2018-10-11T12:54:21.456Z,9.85
2018-10-11T12:56:50.492Z,8.98
2018-10-11T12:59:19.530Z,8.73
2018-10-11T13:01:49.012Z,8.90
2018-10-11T13:04:18.042Z,8.00
2018-10-11T13:06:46.962Z,8.70
2018-10-11T13:09:15.941Z,9.83
2018-10-11T13:11:44.989Z,10.03
2018-10-11T13:14:13.907Z,11.57
2018-10-11T13:16:42.891Z,11.48
2018-10-11T13:19:11.868Z,9.80
2018-10-11T13:21:40.788Z,10.20
2018-10-11T13:24:09.718Z,9.65
2018-10-11T13:26:38.696Z,10.18
2018-10-11T13:29:07.604Z,11.93
2018-10-11T13:31:36.560Z,10.23
2018-10-11T13:34:05.643Z,9.13
2018-10-11T13:36:34.584Z,9.40
2018-10-11T13:39:03.675Z,8.63
2018-10-11T13:41:32.681Z,9.83
2018-10-11T13:44:01.610Z,9.28
2018-10-11T13:46:30.938Z,9.05
2018-10-11T13:48:59.969Z,11.73
2018-10-11T13:51:29.356Z,11.00
2018-10-11T13:53:58.792Z,11.38
2018-10-11T13:56:27.817Z,9.10
2018-10-11T13:58:56.853Z,8.25
2018-10-11T14:01:25.775Z,11.85
2018-10-11T14:03:54.792Z,8.03
2018-10-11T14:06:23.722Z,7.80
2018-10-11T14:08:52.779Z,8.78
2018-10-11T14:11:21.804Z,9.00
2018-10-11T14:13:50.748Z,6.50
2018-10-11T14:16:19.646Z,6.60
2018-10-11T14:18:48.671Z,6.15
2018-10-11T14:21:17.635Z,6.83
2018-10-11T14:23:46.688Z,6.60
2018-10-11T14:26:15.994Z,5.40
2018-10-11T14:28:44.996Z,6.53
2018-10-11T14:31:14.084Z,8.13
2018-10-11T14:33:43.290Z,5.37
2018-10-11T14:36:12.348Z,6.08
2018-10-11T14:38:42.290Z,5.62
2018-10-11T14:41:11.271Z,6.85
2018-10-11T14:43:40.308Z,7.17
2018-10-11T14:46:09.526Z,5.62
2018-10-11T14:48:38.578Z,6.28
2018-10-11T14:51:08.158Z,6.92
2018-10-11T14:53:37.232Z,5.40
2018-10-11T14:56:06.360Z,5.53
2018-10-11T14:58:35.399Z,6.05
2018-10-11T15:01:04.838Z,6.00
2018-10-11T15:03:34.068Z,6.60
2018-10-11T15:06:03.070Z,6.20
2018-10-11T15:08:33.558Z,7.65
2018-10-11T15:11:03.823Z,5.03
2018-10-11T15:13:33.035Z,5.62
2018-10-11T15:16:03.448Z,6.87
2018-10-11T15:18:32.606Z,5.55
2018-10-11T15:21:01.552Z,8.38
2018-10-11T15:23:30.501Z,7.83
2018-10-11T15:25:59.495Z,5.33
2018-10-11T15:28:28.441Z,6.35
2018-10-11T15:30:57.456Z,6.35
2018-10-11T15:33:26.617Z,5.03
2018-10-11T15:35:55.552Z,6.25
2018-10-11T15:38:24.561Z,5.65
2018-10-11T15:40:53.583Z,4.53
2018-10-11T15:43:22.591Z,5.92
2018-10-11T15:45:52.265Z,5.90
2018-10-11T15:48:21.219Z,5.22
2018-10-11T15:50:50.152Z,5.45
2018-10-11T15:53:19.164Z,5.75
2018-10-11T15:55:48.214Z,6.05
2018-10-11T15:58:17.132Z,6.75
2018-10-11T16:00:46.783Z,8.33
2018-10-11T16:03:15.983Z,7.05
2018-10-11T16:05:45.057Z,6.60
2018-10-11T16:08:14.928Z,9.38
2018-10-11T16:10:43.903Z,9.05
2018-10-11T16:13:12.856Z,6.00
2018-10-11T16:15:41.823Z,8.08
2018-10-11T16:18:10.972Z,6.37
2018-10-11T16:20:39.942Z,5.72
2018-10-11T16:23:08.950Z,7.50
2018-10-11T16:25:38.001Z,6.37
2018-10-11T16:28:06.984Z,5.90
2018-10-11T16:30:36.147Z,8.98
2018-10-11T16:33:05.372Z,9.70
2018-10-11T16:35:34.358Z,8.45
2018-10-11T16:38:03.373Z,7.35
2018-10-11T16:40:32.790Z,8.70
2018-10-11T16:43:01.760Z,10.45
2018-10-11T16:45:30.746Z,10.18
2018-10-11T16:47:59.752Z,9.45
2018-10-11T16:50:28.754Z,16.50
2018-10-11T16:52:57.968Z,11.50
2018-10-11T16:55:27.052Z,11.30
2018-10-11T16:57:55.969Z,10.23
2018-10-11T17:00:25.184Z,14.65
2018-10-11T17:02:54.365Z,10.50
2018-10-11T17:05:23.352Z,8.30
2018-10-11T17:07:53.366Z,11.80
2018-10-11T17:10:22.615Z,10.45
2018-10-11T17:12:51.548Z,10.13
2018-10-11T17:15:20.540Z,10.18
2018-10-11T17:17:49.550Z,10.50
2018-10-11T17:20:18.496Z,10.70
2018-10-11T17:22:47.427Z,10.72
2018-10-11T17:25:16.479Z,10.45
2018-10-11T17:27:45.472Z,8.70
2018-10-11T17:30:14.621Z,10.23
2018-10-11T17:32:43.659Z,10.18
2018-10-11T17:35:12.655Z,15.23
2018-10-11T17:37:41.668Z,8.73
2018-10-11T17:40:11.204Z,8.63
2018-10-11T17:42:40.242Z,9.33
2018-10-11T17:45:09.209Z,9.78
2018-10-11T17:47:38.275Z,9.30
2018-10-11T17:50:08.096Z,11.65
2018-10-11T17:52:37.065Z,9.95
2018-10-11T17:55:06.132Z,8.90
2018-10-11T17:57:35.121Z,9.63
2018-10-11T18:00:04.568Z,13.32
2018-10-11T18:02:33.560Z,15.55
2018-10-11T18:05:02.475Z,11.73
2018-10-11T18:07:31.399Z,12.20
2018-10-11T18:10:00.583Z,11.65
2018-10-11T18:12:29.539Z,12.07
2018-10-11T18:14:58.506Z,9.50
2018-10-11T18:17:27.567Z,9.88
2018-10-11T18:19:56.596Z,10.82
2018-10-11T18:22:25.629Z,12.33
2018-10-11T18:24:54.678Z,12.85
2018-10-11T18:27:23.698Z,12.23
2018-10-11T18:29:52.679Z,10.03
2018-10-11T18:32:21.684Z,11.70
2018-10-11T18:34:50.771Z,13.32
2018-10-11T18:37:19.756Z,16.05
2018-10-11T18:39:48.821Z,14.90
2018-10-11T18:42:17.758Z,17.05
2018-10-11T18:44:46.793Z,11.12
2018-10-11T18:47:15.994Z,14.78
2018-10-11T18:49:44.913Z,16.10
2018-10-11T18:52:15.088Z,12.23
2018-10-11T18:54:44.099Z,15.30
2018-10-11T18:57:16.199Z,13.75
2018-10-11T18:59:45.248Z,14.10
2018-10-11T19:02:14.316Z,14.15
2018-10-11T19:04:43.274Z,13.65
2018-10-11T19:07:12.432Z,13.30
2018-10-11T19:09:41.360Z,17.23
2018-10-11T19:12:10.943Z,18.07
2018-10-11T19:14:40.019Z,11.43
2018-10-11T19:17:09.155Z,14.25
2018-10-11T19:19:38.299Z,14.38
2018-10-11T19:22:07.408Z,12.65
2018-10-11T19:24:36.383Z,14.90
2018-10-11T19:27:05.369Z,14.50
2018-10-11T19:29:34.454Z,12.90
2018-10-11T19:32:03.531Z,13.75
2018-10-11T19:34:32.625Z,15.00
2018-10-11T19:37:01.706Z,12.37
2018-10-11T19:39:30.791Z,17.80
2018-10-11T19:42:00.056Z,14.53
2018-10-11T19:44:29.120Z,16.77
2018-10-11T19:46:58.172Z,15.00
2018-10-11T19:49:27.118Z,19.92
2018-10-11T19:51:56.235Z,15.38
2018-10-11T19:54:25.297Z,15.53
2018-10-11T19:56:54.779Z,13.75
2018-10-11T19:59:23.896Z,15.23
2018-10-11T20:01:52.920Z,11.83
2018-10-11T20:04:21.966Z,12.63
2018-10-11T20:06:51.116Z,16.15
2018-10-11T20:09:20.147Z,14.75
2018-10-11T20:11:49.137Z,14.23
2018-10-11T20:14:18.103Z,12.53
2018-10-11T20:16:47.572Z,15.72
2018-10-11T20:19:17.801Z,12.75
2018-10-11T20:21:48.138Z,11.20
2018-10-11T20:24:17.435Z,16.05
2018-10-11T20:26:46.590Z,12.45
2018-10-11T20:29:15.778Z,16.23
2018-10-11T20:31:44.869Z,13.28
2018-10-11T20:34:13.996Z,11.90
2018-10-11T20:36:43.134Z,15.70
2018-10-11T20:39:12.305Z,12.93
2018-10-11T20:41:41.244Z,12.35
2018-10-11T20:44:10.356Z,13.75
2018-10-11T20:46:39.514Z,13.58
2018-10-11T20:49:08.714Z,13.72
2018-10-11T20:51:37.711Z,14.75
2018-10-11T20:54:06.804Z,12.10
2018-10-11T20:56:35.935Z,15.05
2018-10-11T20:59:05.024Z,11.63
2018-10-11T21:01:34.051Z,13.88
2018-10-11T21:04:03.097Z,13.00
2018-10-11T21:06:32.356Z,14.50
2018-10-11T21:09:01.907Z,17.65
2018-10-11T21:11:31.014Z,16.00
2018-10-11T21:14:00.392Z,20.90
2018-10-11T21:16:29.512Z,19.85
2018-10-11T21:18:58.500Z,16.32
2018-10-11T21:21:27.592Z,16.07
2018-10-11T21:23:56.836Z,17.48
2018-10-11T21:26:25.809Z,15.60
2018-10-11T21:28:54.879Z,20.52
2018-10-11T21:31:24.203Z,18.60
2018-10-11T21:33:53.231Z,20.75
2018-10-11T21:36:22.309Z,24.00
2018-10-11T21:38:51.826Z,22.95
2018-10-11T21:41:20.820Z,19.55
2018-10-11T21:43:49.910Z,27.20
2018-10-11T21:46:19.387Z,21.70
2018-10-11T21:48:48.393Z,21.27
2018-10-11T21:51:17.403Z,24.65
2018-10-11T21:53:46.903Z,20.52
2018-10-11T21:56:16.179Z,27.40
2018-10-11T21:58:45.488Z,25.08
2018-10-11T22:01:20.638Z,27.30
2018-10-11T22:03:49.760Z,30.20
2018-10-11T22:06:19.516Z,25.45
2018-10-11T22:08:49.037Z,25.62
2018-10-11T22:11:18.172Z,28.25
2018-10-11T22:13:47.731Z,21.82
2018-10-11T22:16:16.839Z,22.13
2018-10-11T22:18:45.844Z,24.98
2018-10-11T22:21:14.821Z,27.30
2018-10-11T22:23:44.268Z,26.73
2018-10-11T22:26:14.374Z,27.80
2018-10-11T22:28:46.519Z,26.45
2018-10-11T22:31:15.693Z,23.67
2018-10-11T22:33:44.903Z,24.40
2018-10-11T22:36:14.289Z,23.83
2018-10-11T22:38:43.288Z,27.82
2018-10-11T22:41:12.822Z,29.63
2018-10-11T22:43:42.501Z,28.30
2018-10-11T22:46:12.430Z,35.95
2018-10-11T22:48:41.732Z,30.95
2018-10-11T22:51:10.907Z,31.05
2018-10-11T22:53:39.915Z,27.62
2018-10-11T22:56:08.998Z,25.88
2018-10-11T22:58:37.992Z,34.15
2018-10-11T23:01:07.226Z,29.92
2018-10-11T23:03:36.259Z,33.28
2018-10-11T23:06:05.261Z,32.67
2018-10-11T23:08:34.663Z,35.85
2018-10-11T23:11:03.717Z,34.50
2018-10-11T23:13:32.711Z,35.60
2018-10-11T23:16:01.691Z,32.23
2018-10-11T23:18:30.695Z,43.42
2018-10-11T23:20:59.756Z,32.75
2018-10-11T23:23:28.855Z,35.92
2018-10-11T23:25:58.955Z,43.38
2018-10-11T23:28:28.057Z,33.63
2018-10-11T23:30:56.996Z,37.63
2018-10-11T23:33:26.020Z,32.90
2018-10-11T23:35:55.009Z,33.70
2018-10-11T23:38:24.061Z,41.85
2018-10-11T23:40:53.043Z,38.38
2018-10-11T23:43:22.004Z,37.17
2018-10-11T23:45:51.064Z,37.70
2018-10-11T23:48:20.285Z,39.30
2018-10-11T23:50:49.317Z,43.45
2018-10-11T23:53:18.325Z,43.55
2018-10-11T23:55:47.341Z,45.95
2018-10-11T23:58:16.337Z,46.35
